Time;durP1;ratioP1;P1;durP2;ratioP2;P2;SDS_P1;SDS_P2;PMS_P1;PMS_P2;Temp;Humidity;BMP_temperature;BMP_pressure;BME280_temperature;BME280_humidity;BME280_pressure;Samples;Min_cycle;Max_cycle;Signal;HPM_P1;HPM_P2
2022/04/10 00:02:04;;;;;;;7.53;2.50;;;4.30;99.90;;;;;;5060263;28;20517;-71
2022/04/10 00:04:53;;;;;;;6.43;2.67;;;4.30;99.90;;;;;;5059536;28;20455;-71
2022/04/10 00:07:41;;;;;;;6.27;2.63;;;4.20;99.90;;;;;;5054965;28;20485;-70
2022/04/10 00:10:29;;;;;;;8.57;3.93;;;4.20;99.90;;;;;;5053753;28;20541;-71
2022/04/10 00:13:17;;;;;;;5.90;2.00;;;4.20;99.90;;;;;;5054034;28;20612;-70
2022/04/10 00:16:07;;;;;;;6.30;2.20;;;4.10;99.90;;;;;;5052461;28;20457;-71
2022/04/10 00:19:01;;;;;;;7.57;2.97;;;4.10;99.90;;;;;;5052549;28;20506;-71
2022/04/10 00:21:50;;;;;;;6.10;2.43;;;4.10;99.90;;;;;;5060332;28;20438;-71
2022/04/10 00:24:41;;;;;;;9.50;2.40;;;4.10;99.90;;;;;;5063058;28;20527;-71
2022/04/10 00:27:29;;;;;;;9.37;2.63;;;4.00;99.90;;;;;;5064574;28;22327;-70
2022/04/10 00:30:18;;;;;;;5.80;2.17;;;4.00;99.90;;;;;;5057643;28;20490;-71
2022/04/10 00:33:06;;;;;;;8.73;2.77;;;4.00;99.90;;;;;;5057877;28;20454;-70
2022/04/10 00:35:56;;;;;;;3.93;1.83;;;4.00;99.90;;;;;;5054417;28;20525;-70
2022/04/10 00:38:44;;;;;;;4.97;2.50;;;4.00;99.90;;;;;;5058188;28;20532;-71
2022/04/10 00:41:32;;;;;;;3.43;2.00;;;4.00;99.90;;;;;;5059474;28;20949;-71
2022/04/10 00:44:20;;;;;;;5.27;1.90;;;3.90;99.90;;;;;;5059326;28;20590;-71
2022/04/10 00:47:10;;;;;;;5.77;2.40;;;3.90;99.90;;;;;;5058870;28;20453;-72
2022/04/10 00:49:58;;;;;;;6.03;2.10;;;3.90;99.90;;;;;;5055308;28;20516;-71
2022/04/10 00:52:50;;;;;;;5.60;2.30;;;3.90;99.90;;;;;;5059502;28;20434;-71
2022/04/10 00:55:38;;;;;;;6.73;2.33;;;3.90;99.90;;;;;;5057567;28;20447;-70
2022/04/10 00:58:27;;;;;;;4.87;2.17;;;3.80;99.90;;;;;;5059978;28;20609;-71
2022/04/10 01:01:15;;;;;;;7.50;4.47;;;3.80;99.90;;;;;;5057377;28;20526;-71
2022/04/10 01:04:04;;;;;;;4.00;3.07;;;3.80;99.90;;;;;;5060718;28;20883;-71
2022/04/10 01:06:54;;;;;;;4.20;2.07;;;3.80;99.90;;;;;;5057332;28;20475;-70
2022/04/10 01:09:43;;;;;;;8.17;2.37;;;3.80;99.90;;;;;;5054098;28;20463;-71
2022/04/10 01:12:33;;;;;;;2.80;2.10;;;3.80;99.90;;;;;;5054169;28;20465;-71
2022/04/10 01:15:23;;;;;;;4.07;2.10;;;3.70;99.90;;;;;;5057398;28;20458;-70
2022/04/10 01:18:12;;;;;;;4.60;2.37;;;3.80;99.90;;;;;;5059025;28;20860;-71
2022/04/10 01:21:03;;;;;;;7.60;2.47;;;3.70;99.90;;;;;;5054870;28;20544;-71
2022/04/10 01:23:53;;;;;;;4.40;2.37;;;3.70;99.90;;;;;;5061604;28;20600;-70
2022/04/10 01:26:43;;;;;;;2.80;2.20;;;3.70;99.90;;;;;;5064223;28;20806;-71
2022/04/10 01:29:31;;;;;;;5.47;2.70;;;3.70;99.90;;;;;;5067747;28;20583;-71
2022/04/10 01:32:19;;;;;;;3.73;2.43;;;3.60;99.90;;;;;;5056358;28;21193;-70
2022/04/10 01:35:09;;;;;;;9.00;2.80;;;3.60;99.90;;;;;;5059874;28;20438;-71
2022/04/10 01:37:59;;;;;;;5.43;2.73;;;3.60;99.90;;;;;;5053301;28;20478;-70
2022/04/10 01:40:48;;;;;;;5.83;2.80;;;3.60;99.90;;;;;;5060503;28;20979;-70
2022/04/10 01:43:36;;;;;;;6.33;2.80;;;3.60;99.90;;;;;;5052937;28;20481;-71
2022/04/10 01:46:26;;;;;;;3.97;2.37;;;3.60;99.90;;;;;;5061856;28;20950;-71
2022/04/10 01:49:15;;;;;;;4.80;2.27;;;3.60;99.90;;;;;;5055513;28;20596;-70
2022/04/10 01:52:04;;;;;;;4.77;2.10;;;3.60;99.90;;;;;;5055855;28;20563;-70
2022/04/10 01:54:53;;;;;;;6.53;2.60;;;3.70;99.90;;;;;;5057256;28;20457;-71
2022/04/10 01:57:43;;;;;;;5.40;2.77;;;3.70;99.90;;;;;;5061111;28;20473;-71
2022/04/10 02:00:31;;;;;;;5.60;2.00;;;3.70;99.90;;;;;;5057304;28;21256;-71
2022/04/10 02:03:19;;;;;;;3.27;1.80;;;3.70;99.90;;;;;;5061388;28;20568;-70
2022/04/10 02:06:10;;;;;;;4.83;2.27;;;3.70;99.90;;;;;;5056841;28;20548;-71
2022/04/10 02:08:58;;;;;;;4.97;2.33;;;3.70;99.90;;;;;;5056923;28;20458;-71
2022/04/10 02:11:49;;;;;;;6.37;2.30;;;3.70;99.90;;;;;;5056571;28;20500;-71
2022/04/10 02:14:39;;;;;;;4.30;2.10;;;3.70;99.90;;;;;;5054561;28;20438;-71
2022/04/10 02:17:27;;;;;;;5.20;2.30;;;3.70;99.90;;;;;;5057408;28;20482;-73
2022/04/10 02:20:15;;;;;;;4.13;1.80;;;3.70;99.90;;;;;;5052690;28;20487;-70
2022/04/10 02:23:03;;;;;;;3.83;3.10;;;3.60;99.90;;;;;;5057805;28;20491;-72
2022/04/10 02:25:52;;;;;;;3.23;2.50;;;3.60;99.90;;;;;;5064676;28;20461;-71
2022/04/10 02:28:40;;;;;;;4.13;2.70;;;3.50;99.90;;;;;;5052194;28;20553;-71
2022/04/10 02:31:30;;;;;;;5.13;2.83;;;3.50;99.90;;;;;;5056628;28;20965;-71
2022/04/10 02:34:18;;;;;;;5.73;3.43;;;3.40;99.90;;;;;;5057706;28;20458;-70
2022/04/10 02:37:06;;;;;;;5.37;2.53;;;3.40;99.90;;;;;;5060744;28;20458;-71
2022/04/10 02:39:55;;;;;;;4.63;2.90;;;3.40;99.90;;;;;;5062643;28;20454;-71
2022/04/10 02:42:43;;;;;;;3.27;2.97;;;3.30;99.90;;;;;;5066562;28;20475;-70
2022/04/10 02:45:34;;;;;;;7.57;3.50;;;3.20;99.90;;;;;;5061885;28;21050;-70
2022/04/10 02:48:24;;;;;;;4.43;2.47;;;3.20;99.90;;;;;;5076016;22;20870;-71
2022/04/10 02:51:13;;;;;;;4.83;2.40;;;3.20;99.90;;;;;;5054884;28;20922;-70
2022/04/10 02:54:01;;;;;;;2.90;2.00;;;3.20;99.90;;;;;;5055677;28;20486;-72
2022/04/10 02:56:49;;;;;;;3.53;2.50;;;3.10;99.90;;;;;;5061021;28;20570;-71
2022/04/10 02:59:38;;;;;;;3.63;2.00;;;3.10;99.90;;;;;;5038735;28;20494;-72
2022/04/10 03:02:26;;;;;;;3.13;1.80;;;3.00;99.90;;;;;;5043642;28;20521;-70
2022/04/10 03:05:16;;;;;;;4.23;2.20;;;2.90;99.90;;;;;;5044730;28;20463;-70
2022/04/10 03:08:04;;;;;;;2.87;2.00;;;2.90;99.90;;;;;;5048225;28;20489;-70
2022/04/10 03:10:52;;;;;;;3.07;2.20;;;2.90;99.90;;;;;;5031200;28;20485;-71
2022/04/10 03:13:41;;;;;;;3.37;2.50;;;2.90;99.90;;;;;;5037143;28;20452;-71
2022/04/10 03:16:29;;;;;;;2.83;2.40;;;2.80;99.90;;;;;;5038539;28;20502;-71
2022/04/10 03:19:17;;;;;;;3.73;2.57;;;2.90;99.90;;;;;;5043405;28;20505;-71
2022/04/10 03:22:07;;;;;;;3.60;2.50;;;2.90;99.90;;;;;;5040601;28;20463;-72
2022/04/10 03:24:55;;;;;;;3.23;2.47;;;2.90;99.90;;;;;;5049441;28;20482;-71
2022/04/10 03:27:43;;;;;;;2.57;2.37;;;2.90;99.90;;;;;;5055879;28;20554;-72
2022/04/10 03:30:31;;;;;;;4.50;3.13;;;2.90;99.90;;;;;;5050147;28;20513;-70
2022/04/10 03:33:19;;;;;;;5.33;3.13;;;2.80;99.90;;;;;;5046099;28;20494;-73
2022/04/10 03:36:07;;;;;;;4.30;3.00;;;2.80;99.90;;;;;;5049760;28;20948;-72
2022/04/10 03:38:57;;;;;;;4.10;3.27;;;2.80;99.90;;;;;;5052910;28;20558;-71
2022/04/10 03:41:45;;;;;;;4.83;2.80;;;2.80;99.90;;;;;;5045738;28;20505;-72
2022/04/10 03:44:33;;;;;;;5.33;3.00;;;2.80;99.90;;;;;;5040282;28;20587;-70
2022/04/10 03:47:21;;;;;;;5.13;3.00;;;2.70;99.90;;;;;;5047277;28;20478;-72
2022/04/10 03:50:10;;;;;;;5.67;2.80;;;2.80;99.90;;;;;;5045744;28;20930;-70
2022/04/10 03:52:58;;;;;;;8.03;3.17;;;2.80;99.90;;;;;;5052844;28;20485;-71
2022/04/10 03:55:48;;;;;;;5.20;2.67;;;2.80;99.90;;;;;;5043208;28;20573;-71
2022/04/10 03:58:36;;;;;;;4.40;3.10;;;2.80;99.90;;;;;;5037323;28;20836;-71
2022/04/10 04:01:24;;;;;;;5.60;2.30;;;2.80;99.90;;;;;;5043724;28;20460;-71
2022/04/10 04:04:12;;;;;;;6.40;2.60;;;2.80;99.90;;;;;;5043335;28;20553;-71
2022/04/10 04:07:00;;;;;;;3.50;2.30;;;2.80;99.90;;;;;;5042230;28;20451;-71
2022/04/10 04:09:48;;;;;;;5.00;2.67;;;2.70;99.90;;;;;;5041192;28;20972;-71
2022/04/10 04:12:39;;;;;;;5.90;2.70;;;2.80;99.90;;;;;;5043973;28;20451;-71
2022/04/10 04:15:27;;;;;;;6.13;3.13;;;2.80;99.90;;;;;;5047075;28;20537;-70
2022/04/10 04:18:15;;;;;;;4.73;2.70;;;2.80;99.90;;;;;;5046593;28;20714;-70
2022/04/10 04:21:04;;;;;;;3.70;2.93;;;2.80;99.90;;;;;;5043575;28;20460;-71
2022/04/10 04:23:54;;;;;;;5.70;3.40;;;2.90;99.90;;;;;;5048323;28;20549;-70
2022/04/10 04:26:42;;;;;;;5.80;3.07;;;2.90;99.90;;;;;;5046094;28;20572;-71
2022/04/10 04:29:32;;;;;;;6.87;3.50;;;2.90;99.90;;;;;;5039586;28;20606;-71
2022/04/10 04:32:20;;;;;;;5.43;3.73;;;2.90;99.90;;;;;;5038755;28;20463;-70
2022/04/10 04:35:10;;;;;;;7.90;3.70;;;2.90;99.90;;;;;;5048257;28;20493;-71
2022/04/10 04:38:00;;;;;;;6.07;3.67;;;2.90;99.90;;;;;;5042293;28;20919;-70
2022/04/10 04:40:48;;;;;;;11.60;4.53;;;2.90;99.90;;;;;;5045453;28;20447;-71
2022/04/10 04:43:37;;;;;;;3.77;3.40;;;2.90;99.90;;;;;;5044214;28;20526;-70
2022/04/10 04:46:26;;;;;;;5.23;3.53;;;3.00;99.90;;;;;;5040664;28;20571;-71
2022/04/10 04:49:14;;;;;;;3.83;3.20;;;3.00;99.90;;;;;;5042386;28;20951;-71
2022/04/10 04:52:02;;;;;;;5.00;3.60;;;3.00;99.90;;;;;;5045250;28;20558;-70
2022/04/10 04:54:50;;;;;;;8.13;3.37;;;3.00;99.90;;;;;;5048963;28;20539;-70
2022/04/10 04:57:38;;;;;;;5.93;3.70;;;3.00;99.90;;;;;;5045925;28;21618;-70
2022/04/10 05:00:27;;;;;;;6.23;3.93;;;3.10;99.90;;;;;;5048343;28;20547;-70
2022/04/10 05:03:17;;;;;;;7.40;3.90;;;3.10;99.90;;;;;;5050799;28;20868;-70
2022/04/10 05:06:05;;;;;;;6.57;4.00;;;3.10;99.90;;;;;;5050406;28;20643;-72
2022/04/10 05:08:53;;;;;;;5.80;4.33;;;3.10;99.90;;;;;;5047760;28;20477;-71
2022/04/10 05:11:42;;;;;;;10.27;4.90;;;3.10;99.90;;;;;;5046512;28;20464;-70
2022/04/10 05:14:30;;;;;;;11.00;4.77;;;3.20;99.90;;;;;;5043338;28;20513;-71
2022/04/10 05:17:19;;;;;;;8.73;3.97;;;3.20;99.90;;;;;;5044946;28;20463;-70
2022/04/10 05:20:10;;;;;;;9.93;3.87;;;3.20;99.90;;;;;;5044101;28;20982;-71
2022/04/10 05:22:58;;;;;;;9.17;3.67;;;3.10;99.90;;;;;;5043320;28;20648;-70
2022/04/10 05:25:46;;;;;;;9.10;3.97;;;3.20;99.90;;;;;;5036958;28;20479;-72
2022/04/10 05:28:34;;;;;;;5.93;4.07;;;3.20;99.90;;;;;;5036468;28;20563;-70
2022/04/10 05:31:24;;;;;;;10.97;4.40;;;3.20;99.90;;;;;;5033217;28;20645;-70
2022/04/10 05:34:12;;;;;;;8.63;3.80;;;3.30;99.90;;;;;;5040850;28;20543;-71
2022/04/10 05:37:01;;;;;;;7.27;4.27;;;3.20;99.90;;;;;;5038920;28;20537;-71
2022/04/10 05:39:50;;;;;;;9.47;3.63;;;3.30;99.90;;;;;;5025994;28;20575;-70
2022/04/10 05:42:41;;;;;;;7.73;4.00;;;3.30;99.90;;;;;;5040653;28;20456;-71
2022/04/10 05:45:29;;;;;;;7.80;3.87;;;3.30;99.90;;;;;;5034866;28;20946;-71
2022/04/10 05:48:18;;;;;;;7.30;4.17;;;3.40;99.90;;;;;;5047094;28;20494;-71
2022/04/10 05:51:08;;;;;;;9.63;3.80;;;3.30;99.90;;;;;;5040561;28;20859;-71
2022/04/10 05:53:57;;;;;;;6.73;3.97;;;3.40;99.90;;;;;;5039498;28;20462;-70
2022/04/10 05:56:46;;;;;;;7.17;3.77;;;3.40;99.90;;;;;;5029028;28;20451;-71
2022/04/10 05:59:34;;;;;;;11.87;4.03;;;3.40;99.90;;;;;;5028223;28;20626;-70
2022/04/10 06:02:22;;;;;;;10.90;3.73;;;3.50;99.90;;;;;;5023297;28;20508;-71
2022/04/10 06:05:10;;;;;;;10.23;4.00;;;3.50;99.90;;;;;;5029720;28;20821;-70
2022/04/10 06:07:58;;;;;;;11.90;3.97;;;3.50;99.90;;;;;;5029088;28;20628;-72
2022/04/10 06:10:48;;;;;;;6.53;3.17;;;3.50;99.90;;;;;;5030160;28;20462;-70
2022/04/10 06:13:36;;;;;;;7.53;3.17;;;3.60;99.90;;;;;;5026573;28;20901;-70
2022/04/10 06:16:24;;;;;;;9.53;3.90;;;3.50;99.90;;;;;;5030997;28;20613;-71
2022/04/10 06:19:12;;;;;;;6.00;3.37;;;3.60;99.90;;;;;;5024157;28;20883;-71
2022/04/10 06:22:01;;;;;;;8.17;3.80;;;3.70;99.90;;;;;;5028970;28;20451;-70
2022/04/10 06:24:49;;;;;;;11.90;4.60;;;3.70;99.90;;;;;;5023007;28;20639;-71
2022/04/10 06:27:38;;;;;;;6.80;3.37;;;3.80;99.90;;;;;;5022648;28;20671;-70
2022/04/10 06:30:27;;;;;;;10.73;3.37;;;3.90;99.90;;;;;;5033011;28;20523;-70
2022/04/10 06:33:15;;;;;;;6.50;3.07;;;3.90;99.90;;;;;;5039236;28;20511;-72
2022/04/10 06:36:04;;;;;;;6.90;3.03;;;3.90;99.90;;;;;;5031162;28;20450;-71
2022/04/10 06:38:52;;;;;;;9.23;3.33;;;4.00;99.90;;;;;;5029306;28;20463;-72
2022/04/10 06:41:40;;;;;;;7.57;3.00;;;4.00;99.90;;;;;;5023523;28;20965;-72
2022/04/10 06:44:30;;;;;;;6.97;2.53;;;4.00;99.90;;;;;;5029777;28;20610;-71
2022/04/10 06:47:18;;;;;;;6.33;2.70;;;4.00;99.90;;;;;;5029967;28;20657;-71
2022/04/10 06:50:07;;;;;;;5.37;2.13;;;4.00;99.90;;;;;;5024633;28;20943;-72
2022/04/10 06:52:55;;;;;;;3.20;2.07;;;4.00;99.90;;;;;;5027314;28;20833;-71
2022/04/10 06:55:43;;;;;;;3.53;1.70;;;4.00;99.90;;;;;;5028463;28;20458;-71
2022/04/10 06:58:31;;;;;;;4.70;2.10;;;4.00;99.90;;;;;;5030572;28;20604;-71
2022/04/10 07:01:20;;;;;;;6.07;2.47;;;4.10;99.90;;;;;;5036988;28;20458;-71
2022/04/10 07:04:09;;;;;;;5.70;2.40;;;4.10;99.90;;;;;;5034988;28;20979;-71
2022/04/10 07:06:57;;;;;;;4.87;2.60;;;4.10;99.90;;;;;;5035294;28;20908;-71
2022/04/10 07:09:45;;;;;;;3.93;2.17;;;4.10;99.90;;;;;;5030271;28;20458;-71
2022/04/10 07:12:33;;;;;;;7.27;3.07;;;4.10;99.90;;;;;;5028630;28;20550;-73
2022/04/10 07:15:22;;;;;;;3.70;1.90;;;4.00;99.90;;;;;;5024564;28;20501;-71
2022/04/10 07:18:17;;;;;;;6.63;2.57;;;4.00;99.90;;;;;;5018560;28;20481;-71
2022/04/10 07:21:05;;;;;;;8.20;2.97;;;4.10;99.90;;;;;;5023064;28;20547;-72
2022/04/10 07:23:52;;;;;;;5.93;2.57;;;4.10;99.90;;;;;;5036530;28;20455;-71
2022/04/10 07:26:40;;;;;;;6.03;3.00;;;4.20;99.90;;;;;;5032979;28;20482;-71
2022/04/10 07:29:29;;;;;;;9.70;3.50;;;4.20;99.90;;;;;;5031004;28;20498;-71
2022/04/10 07:32:17;;;;;;;9.53;3.33;;;4.30;99.90;;;;;;5029149;28;20462;-71
2022/04/10 07:35:07;;;;;;;9.30;3.13;;;4.40;99.90;;;;;;5030330;28;20542;-71
2022/04/10 07:37:55;;;;;;;5.43;2.73;;;4.50;99.90;;;;;;5029012;28;20512;-71
2022/04/10 07:40:44;;;;;;;6.97;3.77;;;4.50;99.90;;;;;;5030509;28;20546;-71
2022/04/10 07:43:32;;;;;;;9.37;3.67;;;4.60;99.90;;;;;;5040994;28;20523;-71
2022/04/10 07:49:26;;;;;;;8.53;2.80;;;4.80;99.90;;;;;;5034090;28;21047;-71
2022/04/10 07:52:16;;;;;;;10.80;3.30;;;4.90;99.90;;;;;;5030447;28;20545;-72
2022/04/10 07:55:05;;;;;;;6.70;3.40;;;5.00;99.90;;;;;;5034836;28;20974;-72
2022/04/10 07:57:53;;;;;;;6.90;2.70;;;5.10;99.90;;;;;;5038442;28;20926;-72
2022/04/10 08:00:41;;;;;;;7.43;4.50;;;5.20;99.90;;;;;;5035156;28;20460;-70
2022/04/10 08:03:29;;;;;;;8.17;3.60;;;5.30;99.90;;;;;;5033679;28;20511;-70
2022/04/10 08:06:18;;;;;;;8.77;3.70;;;5.50;99.90;;;;;;5029144;28;20631;-71
2022/04/10 08:09:07;;;;;;;9.27;3.20;;;5.60;99.90;;;;;;5022064;28;20583;-70
2022/04/10 08:11:55;;;;;;;6.30;2.83;;;5.70;99.90;;;;;;5025270;28;20470;-71
2022/04/10 08:14:44;;;;;;;7.00;3.10;;;5.70;99.90;;;;;;5024852;28;20459;-71
2022/04/10 08:17:32;;;;;;;6.43;4.00;;;5.70;99.90;;;;;;5035777;28;20474;-71
2022/04/10 08:20:20;;;;;;;7.80;2.77;;;5.50;99.90;;;;;;5030912;28;20450;-72
2022/04/10 08:23:08;;;;;;;6.27;3.20;;;5.40;99.90;;;;;;5032743;28;20538;-71
2022/04/10 08:25:58;;;;;;;6.33;2.83;;;5.30;99.90;;;;;;5032798;28;20505;-70
2022/04/10 08:28:46;;;;;;;8.07;2.77;;;5.20;99.90;;;;;;5036944;28;20955;-70
2022/04/10 08:31:34;;;;;;;3.27;2.30;;;5.10;99.90;;;;;;5033495;28;20473;-70
2022/04/10 08:34:22;;;;;;;6.77;2.63;;;5.10;99.90;;;;;;5031128;28;20452;-71
2022/04/10 08:37:11;;;;;;;6.63;2.47;;;5.10;99.90;;;;;;5020564;28;20589;-70
2022/04/10 08:39:59;;;;;;;5.63;2.80;;;5.10;99.90;;;;;;5024474;28;20442;-71
2022/04/10 08:42:48;;;;;;;5.47;2.60;;;5.20;99.90;;;;;;5030214;28;20532;-70
2022/04/10 08:45:38;;;;;;;3.00;2.30;;;5.20;99.90;;;;;;5032158;28;20481;-70
2022/04/10 08:48:26;;;;;;;5.20;2.20;;;5.30;99.90;;;;;;5035841;28;20946;-70
2022/04/10 08:51:15;;;;;;;6.60;2.40;;;5.40;99.90;;;;;;5037305;28;20600;-71
2022/04/10 08:54:03;;;;;;;4.63;2.30;;;5.50;99.90;;;;;;5033329;28;20569;-73
2022/04/10 08:56:51;;;;;;;4.40;2.10;;;5.50;99.90;;;;;;5031943;28;20509;-71
2022/04/10 08:59:43;;;;;;;5.70;1.73;;;5.60;99.90;;;;;;5031100;28;20944;-71
2022/04/10 09:02:31;;;;;;;5.60;1.70;;;5.70;99.90;;;;;;5027749;28;20565;-71
2022/04/10 09:05:21;;;;;;;7.20;2.53;;;5.70;99.90;;;;;;5024451;28;21025;-71
2022/04/10 09:08:11;;;;;;;6.53;2.13;;;5.80;99.90;;;;;;5028079;28;20951;-72
2022/04/10 09:11:02;;;;;;;4.23;1.90;;;5.90;99.90;;;;;;5022846;28;20988;-72
2022/04/10 09:13:51;;;;;;;9.90;2.10;;;5.90;99.90;;;;;;5029641;28;20585;-72
2022/04/10 09:16:41;;;;;;;5.40;1.67;;;6.00;99.90;;;;;;5026808;28;20452;-72
2022/04/10 09:19:36;;;;;;;3.07;1.70;;;6.20;99.90;;;;;;5023885;28;20481;-72
2022/04/10 09:22:26;;;;;;;9.73;2.07;;;6.20;99.90;;;;;;5023851;28;21510;-72
2022/04/10 09:25:16;;;;;;;4.30;1.50;;;6.30;99.90;;;;;;5019481;28;20485;-72
2022/04/10 09:28:05;;;;;;;3.83;1.80;;;6.40;99.90;;;;;;5023698;28;20664;-71
2022/04/10 09:30:53;;;;;;;5.80;2.00;;;6.40;99.90;;;;;;5019856;28;20933;-72
2022/04/10 09:33:50;;;;;;;4.83;2.03;;;6.40;99.90;;;;;;5031641;28;20782;-72
2022/04/10 09:36:40;;;;;;;5.37;2.30;;;6.50;99.90;;;;;;5032523;28;20465;-72
2022/04/10 09:39:32;;;;;;;5.33;1.83;;;6.50;99.90;;;;;;5030152;28;20490;-72
2022/04/10 09:42:31;;;;;;;5.77;1.90;;;6.60;99.90;;;;;;5024267;28;20535;-72
2022/04/10 09:45:39;;;;;;;7.73;2.43;;;6.80;99.90;;;;;;5023923;28;20603;-72
2022/04/10 09:48:29;;;;;;;6.27;1.97;;;6.90;99.90;;;;;;5029360;28;20564;-71
2022/04/10 09:51:19;;;;;;;5.20;1.77;;;7.00;99.90;;;;;;5029281;28;20453;-72
2022/04/10 09:54:07;;;;;;;3.87;1.70;;;7.10;99.90;;;;;;5022276;28;20572;-72
2022/04/10 09:56:56;;;;;;;6.10;2.10;;;7.10;99.90;;;;;;5034397;28;20458;-72
2022/04/10 09:59:46;;;;;;;8.03;2.10;;;7.20;99.90;;;;;;5023298;28;20557;-72
2022/04/10 10:02:34;;;;;;;6.70;2.20;;;7.20;99.90;;;;;;5016153;28;20447;-70
2022/04/10 10:05:23;;;;;;;4.20;1.77;;;7.30;99.90;;;;;;5029895;28;20611;-70
2022/04/10 10:08:13;;;;;;;6.83;1.93;;;7.30;99.90;;;;;;5032147;28;20564;-70
2022/04/10 10:11:02;;;;;;;5.13;1.83;;;7.30;99.90;;;;;;5028007;28;20958;-70
2022/04/10 10:13:52;;;;;;;5.73;2.37;;;7.30;99.90;;;;;;5032140;28;21194;-70
2022/04/10 10:16:41;;;;;;;4.33;1.60;;;7.30;99.90;;;;;;5020202;28;20554;-70
2022/04/10 10:19:34;;;;;;;6.60;2.10;;;7.40;99.90;;;;;;5024164;28;20465;-70
2022/04/10 10:22:22;;;;;;;4.70;1.90;;;7.40;99.90;;;;;;5032986;28;20466;-69
2022/04/10 10:25:17;;;;;;;4.67;1.40;;;7.60;99.90;;;;;;5028920;28;20526;-69
2022/04/10 10:28:40;;;;;;;5.03;1.67;;;7.60;99.90;;;;;;5030178;28;20640;-69
2022/04/10 10:31:47;;;;;;;3.83;1.57;;;7.60;99.90;;;;;;5023305;28;20534;-69
2022/04/10 10:34:35;;;;;;;2.30;1.37;;;7.60;99.90;;;;;;5032083;28;20450;-70
2022/04/10 10:37:28;;;;;;;6.03;1.57;;;7.60;99.90;;;;;;5034787;28;21022;-70
2022/04/10 10:40:19;;;;;;;7.47;1.57;;;7.70;99.90;;;;;;5019164;28;20452;-70
2022/04/10 10:43:09;;;;;;;2.80;1.67;;;7.80;99.90;;;;;;5026366;28;20631;-70
2022/04/10 10:45:59;;;;;;;5.97;1.60;;;7.90;99.90;;;;;;5028912;28;20615;-70
2022/04/10 10:49:19;;;;;;;8.47;1.93;;;7.90;99.90;;;;;;5030697;28;21377;-70
2022/04/10 10:52:09;;;;;;;2.97;1.50;;;8.10;99.90;;;;;;5035702;28;20458;-70
2022/04/10 10:54:58;;;;;;;6.10;1.97;;;8.20;99.90;;;;;;5036071;28;20457;-71
2022/04/10 10:57:48;;;;;;;3.70;1.70;;;8.30;99.90;;;;;;5030967;28;20467;-71
2022/04/10 11:00:38;;;;;;;3.83;1.57;;;8.40;99.90;;;;;;5037220;28;20508;-71
2022/04/10 11:03:30;;;;;;;3.93;1.80;;;8.50;99.90;;;;;;5024533;28;20972;-70
2022/04/10 11:06:22;;;;;;;6.20;1.90;;;8.20;99.90;;;;;;5036948;28;20552;-71
2022/04/10 11:09:20;;;;;;;4.40;1.50;;;8.20;99.90;;;;;;5022406;28;21097;-81
2022/04/10 11:12:14;;;;;;;3.30;1.70;;;8.30;99.90;;;;;;5037261;28;21085;-81
2022/04/10 11:15:17;;;;;;;4.20;1.63;;;8.40;99.90;;;;;;5035048;28;20824;-85
2022/04/10 11:18:31;;;;;;;3.70;2.00;;;8.50;99.90;;;;;;5024677;28;21290;-71
2022/04/10 11:21:21;;;;;;;3.13;1.43;;;8.60;99.90;;;;;;5036463;28;20493;-71
2022/04/10 11:24:23;;;;;;;4.17;1.57;;;8.50;99.90;;;;;;5032886;28;20454;-71
2022/04/10 11:27:34;;;;;;;4.17;1.47;;;8.10;99.90;;;;;;5029681;28;20454;-71
2022/04/10 11:30:25;;;;;;;4.03;1.50;;;7.60;99.90;;;;;;5032537;28;20495;-69
2022/04/10 11:33:14;;;;;;;2.80;1.63;;;7.30;99.90;;;;;;5035091;28;20454;-69
2022/04/10 11:36:03;;;;;;;6.73;2.20;;;7.00;99.90;;;;;;5024931;28;20454;-69
2022/04/10 11:39:10;;;;;;;4.40;2.80;;;6.90;99.90;;;;;;5028385;28;20459;-69
2022/04/10 11:42:00;;;;;;;4.53;1.60;;;6.80;99.90;;;;;;5041038;28;20499;-69
2022/04/10 11:44:50;;;;;;;3.30;1.57;;;6.80;99.90;;;;;;5019924;28;20493;-70
2022/04/10 11:47:41;;;;;;;4.73;1.30;;;6.90;99.90;;;;;;5027687;28;20577;-69
2022/04/10 11:50:31;;;;;;;3.20;1.33;;;7.20;99.90;;;;;;5029047;28;20449;-69
2022/04/10 11:53:19;;;;;;;3.37;1.60;;;7.50;99.90;;;;;;5026233;28;20459;-69
2022/04/10 11:56:12;;;;;;;3.73;1.43;;;7.70;99.90;;;;;;5026640;28;20473;-69
2022/04/10 11:59:01;;;;;;;4.10;1.50;;;7.90;99.90;;;;;;5025976;28;20470;-69
2022/04/10 12:01:50;;;;;;;4.20;1.53;;;8.10;99.90;;;;;;5012698;28;20565;-69
2022/04/10 12:04:41;;;;;;;2.73;1.60;;;8.30;99.90;;;;;;5015331;28;20512;-69
2022/04/10 12:07:29;;;;;;;3.10;1.50;;;8.50;99.90;;;;;;5030598;28;20479;-69
2022/04/10 12:10:20;;;;;;;3.87;1.50;;;8.70;99.90;;;;;;5032684;28;20455;-69
2022/04/10 12:13:09;;;;;;;4.77;1.40;;;9.00;99.90;;;;;;5030603;28;21572;-68
2022/04/10 12:16:01;;;;;;;3.13;1.53;;;9.30;99.90;;;;;;5025871;28;20785;-69
2022/04/10 12:18:51;;;;;;;6.23;1.47;;;9.60;99.90;;;;;;5028202;28;20817;-73
2022/04/10 12:21:48;;;;;;;2.63;1.30;;;9.50;99.90;;;;;;5034150;28;20824;-72
2022/04/10 12:24:37;;;;;;;2.67;1.60;;;9.40;99.90;;;;;;5027658;28;20470;-72
2022/04/10 12:27:26;;;;;;;2.57;1.60;;;9.00;99.90;;;;;;5029331;28;20458;-73
2022/04/10 12:30:15;;;;;;;4.97;1.23;;;8.80;99.90;;;;;;5039317;28;20521;-68
2022/04/10 12:33:03;;;;;;;3.43;1.60;;;9.00;99.90;;;;;;5027789;28;20536;-69
2022/04/10 12:35:51;;;;;;;3.50;1.37;;;9.30;99.90;;;;;;5035451;28;20458;-69
2022/04/10 12:38:41;;;;;;;2.40;1.30;;;9.50;99.90;;;;;;5032496;28;20931;-69
2022/04/10 12:41:30;;;;;;;2.80;1.53;;;9.60;99.90;;;;;;5029415;28;21014;-70
2022/04/10 12:44:23;;;;;;;5.23;1.37;;;9.80;99.90;;;;;;5035687;28;20453;-69
2022/04/10 12:47:11;;;;;;;3.60;1.47;;;9.50;99.90;;;;;;5023183;28;20578;-70
2022/04/10 12:50:06;;;;;;;2.87;1.20;;;9.20;99.90;;;;;;5028121;28;20478;-69
2022/04/10 12:52:56;;;;;;;2.67;1.57;;;9.30;99.90;;;;;;5034015;28;20570;-69
2022/04/10 12:55:45;;;;;;;5.67;1.50;;;9.50;99.90;;;;;;5016716;28;21071;-69
2022/04/10 12:58:47;;;;;;;5.77;1.70;;;9.50;99.90;;;;;;5029749;28;20482;-69
2022/04/10 13:01:36;;;;;;;3.90;1.40;;;9.70;99.90;;;;;;5026783;28;20481;-69
2022/04/10 13:04:30;;;;;;;6.23;2.43;;;9.80;99.90;;;;;;5027492;28;20465;-69
2022/04/10 13:07:19;;;;;;;4.67;1.83;;;9.90;99.90;;;;;;5034573;28;21665;-69
2022/04/10 13:10:08;;;;;;;4.67;1.50;;;10.10;99.90;;;;;;5028210;28;20576;-69
2022/04/10 13:13:06;;;;;;;4.23;1.90;;;10.30;99.90;;;;;;5032919;28;21272;-69
2022/04/10 13:15:56;;;;;;;5.30;2.00;;;10.30;99.90;;;;;;5020853;28;20463;-69
2022/04/10 13:18:44;;;;;;;4.73;1.70;;;10.40;99.90;;;;;;5030394;28;20605;-69
2022/04/10 13:21:34;;;;;;;4.83;1.80;;;10.30;99.90;;;;;;5007245;28;20451;-69
2022/04/10 13:24:23;;;;;;;4.43;1.73;;;10.20;99.90;;;;;;5032145;28;20454;-69
2022/04/10 13:27:11;;;;;;;3.50;1.60;;;10.40;99.90;;;;;;5029510;28;21897;-74
2022/04/10 13:30:01;;;;;;;6.20;2.20;;;10.70;99.90;;;;;;5031459;28;20506;-69
2022/04/10 13:32:49;;;;;;;6.07;2.60;;;10.50;99.90;;;;;;5025492;28;20498;-68
2022/04/10 13:35:37;;;;;;;4.70;1.80;;;10.60;99.90;;;;;;5030225;28;21564;-76
2022/04/10 13:38:25;;;;;;;4.10;1.83;;;10.30;99.90;;;;;;5038988;28;21170;-81
2022/04/10 13:41:14;;;;;;;7.07;1.53;;;9.90;99.90;;;;;;5019144;28;20458;-69
2022/04/10 13:44:02;;;;;;;3.33;1.53;;;9.60;99.90;;;;;;5022082;28;21006;-69
2022/04/10 13:46:52;;;;;;;3.50;1.50;;;9.30;99.90;;;;;;5033672;28;20460;-74
2022/04/10 13:49:40;;;;;;;4.43;1.60;;;9.20;99.90;;;;;;5045210;28;20497;-74
2022/04/10 13:52:28;;;;;;;4.20;1.53;;;9.20;99.90;;;;;;5033811;28;20601;-75
2022/04/10 13:55:16;;;;;;;3.40;1.47;;;9.10;99.90;;;;;;5040170;28;21022;-74
2022/04/10 13:58:05;;;;;;;6.87;1.77;;;9.20;99.90;;;;;;5042336;28;20486;-69
2022/04/10 14:00:53;;;;;;;5.03;2.30;;;9.50;99.90;;;;;;5034542;28;20824;-68
2022/04/10 14:03:43;;;;;;;5.50;2.00;;;9.60;99.90;;;;;;5036511;28;20924;-76
2022/04/10 14:06:32;;;;;;;4.57;1.63;;;9.60;99.90;;;;;;5037879;28;20451;-79
2022/04/10 14:09:20;;;;;;;5.20;1.73;;;9.70;99.90;;;;;;5035201;28;20483;-76
2022/04/10 14:12:10;;;;;;;4.27;1.57;;;9.60;99.90;;;;;;5037623;28;21041;-77
2022/04/10 14:14:58;;;;;;;5.00;1.73;;;9.50;99.90;;;;;;5036892;28;20490;-76
2022/04/10 14:17:46;;;;;;;6.97;2.17;;;9.60;99.90;;;;;;5035294;28;20475;-75
2022/04/10 14:20:36;;;;;;;5.43;1.70;;;9.80;99.90;;;;;;5038373;28;20611;-71
2022/04/10 14:23:24;;;;;;;6.67;1.60;;;9.90;99.90;;;;;;5034012;28;20461;-69
2022/04/10 14:26:13;;;;;;;6.87;2.00;;;9.80;99.90;;;;;;5040242;28;20454;-80
2022/04/10 14:29:01;;;;;;;3.73;1.87;;;9.80;99.90;;;;;;5044549;28;20992;-78
2022/04/10 14:31:49;;;;;;;6.57;2.23;;;9.80;99.90;;;;;;5042711;28;20537;-79
2022/04/10 14:34:37;;;;;;;4.53;1.77;;;9.90;99.90;;;;;;5034691;28;20457;-78
2022/04/10 14:37:26;;;;;;;4.27;2.10;;;9.90;99.90;;;;;;5043590;28;20479;-78
2022/04/10 14:40:15;;;;;;;5.40;2.00;;;9.80;99.90;;;;;;5031545;28;20446;-71
2022/04/10 14:43:03;;;;;;;6.00;2.17;;;9.70;99.90;;;;;;5034649;28;20499;-79
2022/04/10 14:45:51;;;;;;;9.17;2.67;;;9.70;99.90;;;;;;5041038;28;20454;-76
2022/04/10 14:48:39;;;;;;;7.70;2.20;;;9.50;99.90;;;;;;5034046;28;20998;-76
2022/04/10 14:51:33;;;;;;;6.83;2.13;;;9.50;99.90;;;;;;5025369;28;20458;-75
2022/04/10 14:54:22;;;;;;;6.57;2.47;;;9.50;99.90;;;;;;5031515;28;20474;-77
2022/04/10 14:57:13;;;;;;;5.13;2.23;;;9.50;99.90;;;;;;5035317;28;20464;-71